sensor_id;sensor_type;location;lat;lon;timestamp;P1;durP1;ratioP1;P2;durP2;ratioP2
63444;SDS011;49573;47.682;9.170;2023-04-03T00:01:37;5.53;;;3.75;;
63444;SDS011;49573;47.682;9.170;2023-04-03T00:04:23;5.22;;;3.85;;
63444;SDS011;49573;47.682;9.170;2023-04-03T00:07:10;6.50;;;3.80;;
63444;SDS011;49573;47.682;9.170;2023-04-03T00:09:57;6.00;;;3.85;;
63444;SDS011;49573;47.682;9.170;2023-04-03T00:12:43;6.18;;;4.15;;
63444;SDS011;49573;47.682;9.170;2023-04-03T00:15:31;5.28;;;3.70;;
63444;SDS011;49573;47.682;9.170;2023-04-03T00:18:17;5.15;;;3.67;;
63444;SDS011;49573;47.682;9.170;2023-04-03T00:21:03;4.85;;;3.42;;
63444;SDS011;49573;47.682;9.170;2023-04-03T00:23:50;5.22;;;3.50;;
63444;SDS011;49573;47.682;9.170;2023-04-03T00:26:36;6.10;;;4.10;;
63444;SDS011;49573;47.682;9.170;2023-04-03T00:29:22;6.15;;;4.07;;
63444;SDS011;49573;47.682;9.170;2023-04-03T00:32:09;5.20;;;3.50;;
63444;SDS011;49573;47.682;9.170;2023-04-03T00:34:56;8.00;;;4.40;;
63444;SDS011;49573;47.682;9.170;2023-04-03T00:37:42;4.45;;;3.28;;
63444;SDS011;49573;47.682;9.170;2023-04-03T00:40:32;6.57;;;4.32;;
63444;SDS011;49573;47.682;9.170;2023-04-03T00:43:21;5.45;;;3.95;;
63444;SDS011;49573;47.682;9.170;2023-04-03T00:46:08;6.47;;;4.13;;
63444;SDS011;49573;47.682;9.170;2023-04-03T00:48:56;6.30;;;4.18;;
63444;SDS011;49573;47.682;9.170;2023-04-03T00:51:42;6.47;;;4.05;;
63444;SDS011;49573;47.682;9.170;2023-04-03T00:54:28;6.18;;;4.30;;
63444;SDS011;49573;47.682;9.170;2023-04-03T00:57:15;5.95;;;4.13;;
63444;SDS011;49573;47.682;9.170;2023-04-03T01:00:03;6.53;;;4.57;;
63444;SDS011;49573;47.682;9.170;2023-04-03T01:02:51;5.25;;;3.90;;
63444;SDS011;49573;47.682;9.170;2023-04-03T01:05:39;8.05;;;4.90;;
63444;SDS011;49573;47.682;9.170;2023-04-03T01:08:26;5.30;;;4.18;;
63444;SDS011;49573;47.682;9.170;2023-04-03T01:11:12;5.75;;;4.60;;
63444;SDS011;49573;47.682;9.170;2023-04-03T01:13:58;6.53;;;4.72;;
63444;SDS011;49573;47.682;9.170;2023-04-03T01:16:51;6.05;;;4.57;;
63444;SDS011;49573;47.682;9.170;2023-04-03T01:19:37;5.70;;;4.30;;
63444;SDS011;49573;47.682;9.170;2023-04-03T01:22:33;7.00;;;4.70;;
63444;SDS011;49573;47.682;9.170;2023-04-03T01:25:23;7.20;;;4.68;;
63444;SDS011;49573;47.682;9.170;2023-04-03T01:28:11;5.40;;;3.83;;
63444;SDS011;49573;47.682;9.170;2023-04-03T01:31:00;5.22;;;3.90;;
63444;SDS011;49573;47.682;9.170;2023-04-03T01:33:48;6.68;;;4.70;;
63444;SDS011;49573;47.682;9.170;2023-04-03T01:36:35;5.10;;;3.70;;
63444;SDS011;49573;47.682;9.170;2023-04-03T01:39:21;5.30;;;4.18;;
63444;SDS011;49573;47.682;9.170;2023-04-03T01:42:07;6.18;;;3.88;;
63444;SDS011;49573;47.682;9.170;2023-04-03T01:44:54;5.60;;;3.50;;
63444;SDS011;49573;47.682;9.170;2023-04-03T01:47:40;5.13;;;3.90;;
63444;SDS011;49573;47.682;9.170;2023-04-03T01:50:28;6.15;;;3.75;;
63444;SDS011;49573;47.682;9.170;2023-04-03T01:53:14;6.22;;;3.80;;
63444;SDS011;49573;47.682;9.170;2023-04-03T01:56:01;5.22;;;3.90;;
63444;SDS011;49573;47.682;9.170;2023-04-03T01:58:47;6.13;;;3.67;;
63444;SDS011;49573;47.682;9.170;2023-04-03T02:01:33;5.65;;;4.05;;
63444;SDS011;49573;47.682;9.170;2023-04-03T02:04:20;5.55;;;4.00;;
63444;SDS011;49573;47.682;9.170;2023-04-03T02:07:07;6.03;;;3.70;;
63444;SDS011;49573;47.682;9.170;2023-04-03T02:09:54;6.28;;;4.18;;
63444;SDS011;49573;47.682;9.170;2023-04-03T02:12:40;6.53;;;4.65;;
63444;SDS011;49573;47.682;9.170;2023-04-03T02:15:27;6.22;;;4.40;;
63444;SDS011;49573;47.682;9.170;2023-04-03T02:18:13;8.25;;;4.95;;
63444;SDS011;49573;47.682;9.170;2023-04-03T02:20:59;7.32;;;4.70;;
63444;SDS011;49573;47.682;9.170;2023-04-03T02:23:47;7.30;;;4.80;;
63444;SDS011;49573;47.682;9.170;2023-04-03T02:26:33;8.35;;;5.00;;
63444;SDS011;49573;47.682;9.170;2023-04-03T02:29:19;6.45;;;4.70;;
63444;SDS011;49573;47.682;9.170;2023-04-03T02:32:05;7.80;;;5.25;;
63444;SDS011;49573;47.682;9.170;2023-04-03T02:34:51;7.72;;;4.97;;
63444;SDS011;49573;47.682;9.170;2023-04-03T02:37:37;7.80;;;4.82;;
63444;SDS011;49573;47.682;9.170;2023-04-03T02:40:25;7.00;;;4.82;;
63444;SDS011;49573;47.682;9.170;2023-04-03T02:43:11;7.10;;;5.18;;
63444;SDS011;49573;47.682;9.170;2023-04-03T02:45:57;10.07;;;6.65;;
63444;SDS011;49573;47.682;9.170;2023-04-03T02:48:43;7.57;;;5.60;;
63444;SDS011;49573;47.682;9.170;2023-04-03T02:51:29;7.10;;;4.75;;
63444;SDS011;49573;47.682;9.170;2023-04-03T02:54:16;6.35;;;4.70;;
63444;SDS011;49573;47.682;9.170;2023-04-03T02:57:03;6.28;;;4.93;;
63444;SDS011;49573;47.682;9.170;2023-04-03T02:59:49;6.35;;;4.80;;
63444;SDS011;49573;47.682;9.170;2023-04-03T03:02:35;6.50;;;4.88;;
63444;SDS011;49573;47.682;9.170;2023-04-03T03:05:21;6.65;;;4.60;;
63444;SDS011;49573;47.682;9.170;2023-04-03T03:08:07;7.97;;;5.13;;
63444;SDS011;49573;47.682;9.170;2023-04-03T03:10:53;7.57;;;4.70;;
63444;SDS011;49573;47.682;9.170;2023-04-03T03:13:41;8.27;;;4.70;;
63444;SDS011;49573;47.682;9.170;2023-04-03T03:16:27;7.00;;;4.90;;
63444;SDS011;49573;47.682;9.170;2023-04-03T03:19:13;6.28;;;4.60;;
63444;SDS011;49573;47.682;9.170;2023-04-03T03:21:59;7.45;;;4.38;;
63444;SDS011;49573;47.682;9.170;2023-04-03T03:24:45;6.82;;;4.38;;
63444;SDS011;49573;47.682;9.170;2023-04-03T03:27:31;6.10;;;4.10;;
63444;SDS011;49573;47.682;9.170;2023-04-03T03:30:18;7.53;;;4.30;;
63444;SDS011;49573;47.682;9.170;2023-04-03T03:33:04;6.63;;;4.57;;
63444;SDS011;49573;47.682;9.170;2023-04-03T03:35:51;6.22;;;4.03;;
63444;SDS011;49573;47.682;9.170;2023-04-03T03:38:37;5.90;;;4.15;;
63444;SDS011;49573;47.682;9.170;2023-04-03T03:41:23;5.60;;;4.00;;
63444;SDS011;49573;47.682;9.170;2023-04-03T03:44:10;5.80;;;4.28;;
63444;SDS011;49573;47.682;9.170;2023-04-03T03:46:57;5.65;;;4.05;;
63444;SDS011;49573;47.682;9.170;2023-04-03T03:49:43;6.28;;;4.00;;
63444;SDS011;49573;47.682;9.170;2023-04-03T03:52:29;6.07;;;3.92;;
63444;SDS011;49573;47.682;9.170;2023-04-03T03:55:16;5.65;;;3.60;;
63444;SDS011;49573;47.682;9.170;2023-04-03T03:58:02;6.75;;;3.80;;
63444;SDS011;49573;47.682;9.170;2023-04-03T04:00:48;5.37;;;3.87;;
63444;SDS011;49573;47.682;9.170;2023-04-03T04:03:36;6.13;;;4.05;;
63444;SDS011;49573;47.682;9.170;2023-04-03T04:06:22;4.75;;;3.05;;
63444;SDS011;49573;47.682;9.170;2023-04-03T04:09:08;5.28;;;3.30;;
63444;SDS011;49573;47.682;9.170;2023-04-03T04:11:55;4.55;;;3.25;;
63444;SDS011;49573;47.682;9.170;2023-04-03T04:14:41;5.03;;;3.60;;
63444;SDS011;49573;47.682;9.170;2023-04-03T04:17:27;8.90;;;3.30;;
63444;SDS011;49573;47.682;9.170;2023-04-03T04:20:14;5.82;;;3.30;;
63444;SDS011;49573;47.682;9.170;2023-04-03T04:23:00;4.60;;;3.28;;
63444;SDS011;49573;47.682;9.170;2023-04-03T04:25:47;4.45;;;3.30;;
63444;SDS011;49573;47.682;9.170;2023-04-03T04:28:33;4.95;;;3.47;;
63444;SDS011;49573;47.682;9.170;2023-04-03T04:31:19;4.53;;;3.35;;
63444;SDS011;49573;47.682;9.170;2023-04-03T04:34:05;4.20;;;2.97;;
63444;SDS011;49573;47.682;9.170;2023-04-03T04:36:53;4.57;;;2.80;;
63444;SDS011;49573;47.682;9.170;2023-04-03T04:39:39;5.63;;;3.30;;
63444;SDS011;49573;47.682;9.170;2023-04-03T04:42:25;3.85;;;2.90;;
63444;SDS011;49573;47.682;9.170;2023-04-03T04:45:11;4.20;;;3.10;;
63444;SDS011;49573;47.682;9.170;2023-04-03T04:47:57;4.88;;;3.30;;
63444;SDS011;49573;47.682;9.170;2023-04-03T04:50:43;4.60;;;3.20;;
63444;SDS011;49573;47.682;9.170;2023-04-03T04:53:31;4.60;;;3.00;;
63444;SDS011;49573;47.682;9.170;2023-04-03T04:56:17;4.28;;;3.10;;
63444;SDS011;49573;47.682;9.170;2023-04-03T04:59:03;3.70;;;2.65;;
63444;SDS011;49573;47.682;9.170;2023-04-03T05:01:49;4.45;;;2.92;;
63444;SDS011;49573;47.682;9.170;2023-04-03T05:04:35;5.18;;;3.25;;
63444;SDS011;49573;47.682;9.170;2023-04-03T05:07:21;4.45;;;2.95;;
63444;SDS011;49573;47.682;9.170;2023-04-03T05:10:09;4.95;;;3.38;;
63444;SDS011;49573;47.682;9.170;2023-04-03T05:12:55;4.30;;;2.80;;
63444;SDS011;49573;47.682;9.170;2023-04-03T05:15:42;5.00;;;3.20;;
63444;SDS011;49573;47.682;9.170;2023-04-03T05:18:28;6.15;;;3.22;;
63444;SDS011;49573;47.682;9.170;2023-04-03T05:21:14;5.22;;;3.00;;
63444;SDS011;49573;47.682;9.170;2023-04-03T05:24:00;4.07;;;2.70;;
63444;SDS011;49573;47.682;9.170;2023-04-03T05:26:49;4.82;;;2.97;;
63444;SDS011;49573;47.682;9.170;2023-04-03T05:29:35;4.53;;;3.30;;
63444;SDS011;49573;47.682;9.170;2023-04-03T05:32:21;4.90;;;3.00;;
63444;SDS011;49573;47.682;9.170;2023-04-03T05:35:08;4.10;;;3.10;;
63444;SDS011;49573;47.682;9.170;2023-04-03T05:37:54;5.82;;;2.83;;
63444;SDS011;49573;47.682;9.170;2023-04-03T05:40:40;4.05;;;3.03;;
63444;SDS011;49573;47.682;9.170;2023-04-03T05:43:28;5.03;;;2.65;;
63444;SDS011;49573;47.682;9.170;2023-04-03T05:46:16;4.55;;;2.97;;
63444;SDS011;49573;47.682;9.170;2023-04-03T05:49:03;4.45;;;2.70;;
63444;SDS011;49573;47.682;9.170;2023-04-03T05:51:49;4.47;;;2.95;;
63444;SDS011;49573;47.682;9.170;2023-04-03T05:54:36;5.22;;;2.90;;
63444;SDS011;49573;47.682;9.170;2023-04-03T05:57:23;4.68;;;2.90;;
63444;SDS011;49573;47.682;9.170;2023-04-03T06:00:12;4.72;;;2.85;;
63444;SDS011;49573;47.682;9.170;2023-04-03T06:03:00;3.83;;;2.63;;
63444;SDS011;49573;47.682;9.170;2023-04-03T06:05:46;4.80;;;2.95;;
63444;SDS011;49573;47.682;9.170;2023-04-03T06:08:33;4.38;;;2.75;;
63444;SDS011;49573;47.682;9.170;2023-04-03T06:14:07;4.32;;;2.95;;
63444;SDS011;49573;47.682;9.170;2023-04-03T06:16:55;5.05;;;2.90;;
63444;SDS011;49573;47.682;9.170;2023-04-03T06:19:41;4.70;;;2.80;;
63444;SDS011;49573;47.682;9.170;2023-04-03T06:22:27;6.83;;;3.00;;
63444;SDS011;49573;47.682;9.170;2023-04-03T06:25:15;4.47;;;2.92;;
63444;SDS011;49573;47.682;9.170;2023-04-03T06:28:02;5.13;;;3.20;;
63444;SDS011;49573;47.682;9.170;2023-04-03T06:30:48;5.60;;;3.00;;
63444;SDS011;49573;47.682;9.170;2023-04-03T06:33:36;4.00;;;2.80;;
63444;SDS011;49573;47.682;9.170;2023-04-03T06:36:22;5.55;;;3.20;;
63444;SDS011;49573;47.682;9.170;2023-04-03T06:39:08;5.38;;;2.92;;
63444;SDS011;49573;47.682;9.170;2023-04-03T06:41:58;5.75;;;3.03;;
63444;SDS011;49573;47.682;9.170;2023-04-03T06:44:44;5.07;;;3.00;;
63444;SDS011;49573;47.682;9.170;2023-04-03T06:47:30;6.07;;;2.88;;
63444;SDS011;49573;47.682;9.170;2023-04-03T06:50:17;4.22;;;2.70;;
63444;SDS011;49573;47.682;9.170;2023-04-03T06:53:04;4.43;;;3.10;;
63444;SDS011;49573;47.682;9.170;2023-04-03T06:55:50;4.38;;;2.97;;
63444;SDS011;49573;47.682;9.170;2023-04-03T06:58:36;4.43;;;3.08;;
63444;SDS011;49573;47.682;9.170;2023-04-03T07:01:23;5.75;;;3.22;;
63444;SDS011;49573;47.682;9.170;2023-04-03T07:04:11;4.28;;;2.92;;
63444;SDS011;49573;47.682;9.170;2023-04-03T07:06:59;5.68;;;3.47;;
63444;SDS011;49573;47.682;9.170;2023-04-03T07:09:45;5.35;;;3.08;;
63444;SDS011;49573;47.682;9.170;2023-04-03T07:12:33;4.15;;;2.83;;
63444;SDS011;49573;47.682;9.170;2023-04-03T07:15:19;4.07;;;2.75;;
63444;SDS011;49573;47.682;9.170;2023-04-03T07:18:05;5.70;;;3.17;;
63444;SDS011;49573;47.682;9.170;2023-04-03T07:20:51;4.45;;;3.00;;
63444;SDS011;49573;47.682;9.170;2023-04-03T07:23:39;4.47;;;2.92;;
63444;SDS011;49573;47.682;9.170;2023-04-03T07:26:25;4.32;;;3.00;;
63444;SDS011;49573;47.682;9.170;2023-04-03T07:29:11;4.68;;;3.17;;
63444;SDS011;49573;47.682;9.170;2023-04-03T07:31:57;5.95;;;3.10;;
63444;SDS011;49573;47.682;9.170;2023-04-03T07:34:43;4.75;;;3.28;;
63444;SDS011;49573;47.682;9.170;2023-04-03T07:37:30;4.40;;;3.20;;
63444;SDS011;49573;47.682;9.170;2023-04-03T07:40:17;7.22;;;3.40;;
63444;SDS011;49573;47.682;9.170;2023-04-03T07:43:04;4.53;;;3.08;;
63444;SDS011;49573;47.682;9.170;2023-04-03T07:45:50;4.72;;;3.20;;
63444;SDS011;49573;47.682;9.170;2023-04-03T07:48:36;4.80;;;3.10;;
63444;SDS011;49573;47.682;9.170;2023-04-03T07:51:22;4.82;;;3.10;;
63444;SDS011;49573;47.682;9.170;2023-04-03T07:56:57;4.47;;;3.00;;
63444;SDS011;49573;47.682;9.170;2023-04-03T07:59:43;4.63;;;3.28;;
63444;SDS011;49573;47.682;9.170;2023-04-03T08:02:29;4.90;;;3.13;;
63444;SDS011;49573;47.682;9.170;2023-04-03T08:05:17;5.15;;;3.20;;
63444;SDS011;49573;47.682;9.170;2023-04-03T08:08:04;4.95;;;3.47;;
63444;SDS011;49573;47.682;9.170;2023-04-03T08:10:50;5.15;;;3.20;;
63444;SDS011;49573;47.682;9.170;2023-04-03T08:13:38;6.68;;;3.72;;
63444;SDS011;49573;47.682;9.170;2023-04-03T08:16:24;5.30;;;3.38;;
63444;SDS011;49573;47.682;9.170;2023-04-03T08:19:13;6.00;;;3.60;;
63444;SDS011;49573;47.682;9.170;2023-04-03T08:22:01;5.03;;;3.45;;
63444;SDS011;49573;47.682;9.170;2023-04-03T08:24:48;6.05;;;3.45;;
63444;SDS011;49573;47.682;9.170;2023-04-03T08:27:34;7.60;;;3.75;;
63444;SDS011;49573;47.682;9.170;2023-04-03T08:30:22;6.78;;;3.85;;
63444;SDS011;49573;47.682;9.170;2023-04-03T08:33:08;5.88;;;3.78;;
63444;SDS011;49573;47.682;9.170;2023-04-03T08:35:55;5.40;;;3.75;;
63444;SDS011;49573;47.682;9.170;2023-04-03T08:38:41;6.07;;;3.38;;
63444;SDS011;49573;47.682;9.170;2023-04-03T08:41:29;5.97;;;3.58;;
63444;SDS011;49573;47.682;9.170;2023-04-03T08:44:21;7.28;;;3.60;;
63444;SDS011;49573;47.682;9.170;2023-04-03T08:47:14;5.60;;;3.63;;
63444;SDS011;49573;47.682;9.170;2023-04-03T08:50:11;5.78;;;3.75;;
63444;SDS011;49573;47.682;9.170;2023-04-03T08:53:00;4.88;;;3.53;;
63444;SDS011;49573;47.682;9.170;2023-04-03T08:55:49;6.75;;;3.70;;
63444;SDS011;49573;47.682;9.170;2023-04-03T08:58:41;5.30;;;3.63;;
63444;SDS011;49573;47.682;9.170;2023-04-03T09:01:33;5.10;;;3.90;;
63444;SDS011;49573;47.682;9.170;2023-04-03T09:04:23;4.93;;;2.95;;
63444;SDS011;49573;47.682;9.170;2023-04-03T09:07:14;6.75;;;3.42;;
63444;SDS011;49573;47.682;9.170;2023-04-03T09:10:06;5.53;;;3.53;;
63444;SDS011;49573;47.682;9.170;2023-04-03T09:12:57;5.50;;;3.58;;
63444;SDS011;49573;47.682;9.170;2023-04-03T09:15:46;5.45;;;3.28;;
63444;SDS011;49573;47.682;9.170;2023-04-03T09:18:35;4.63;;;3.42;;
63444;SDS011;49573;47.682;9.170;2023-04-03T09:21:30;5.03;;;3.85;;
63444;SDS011;49573;47.682;9.170;2023-04-03T09:24:20;5.13;;;3.20;;
63444;SDS011;49573;47.682;9.170;2023-04-03T09:27:09;6.32;;;3.60;;
63444;SDS011;49573;47.682;9.170;2023-04-03T09:29:57;4.93;;;3.22;;
63444;SDS011;49573;47.682;9.170;2023-04-03T09:32:44;5.80;;;3.63;;
63444;SDS011;49573;47.682;9.170;2023-04-03T09:35:32;5.07;;;3.50;;
63444;SDS011;49573;47.682;9.170;2023-04-03T09:38:21;5.38;;;3.40;;
63444;SDS011;49573;47.682;9.170;2023-04-03T09:41:13;6.28;;;3.47;;
63444;SDS011;49573;47.682;9.170;2023-04-03T09:44:01;5.30;;;3.17;;
63444;SDS011;49573;47.682;9.170;2023-04-03T09:46:47;5.53;;;3.50;;
63444;SDS011;49573;47.682;9.170;2023-04-03T09:49:33;5.40;;;3.33;;
63444;SDS011;49573;47.682;9.170;2023-04-03T09:52:20;6.57;;;3.15;;
63444;SDS011;49573;47.682;9.170;2023-04-03T09:55:15;4.60;;;3.30;;
63444;SDS011;49573;47.682;9.170;2023-04-03T09:58:03;5.78;;;3.72;;
63444;SDS011;49573;47.682;9.170;2023-04-03T10:00:54;5.78;;;3.15;;
63444;SDS011;49573;47.682;9.170;2023-04-03T10:03:41;7.10;;;3.80;;
63444;SDS011;49573;47.682;9.170;2023-04-03T10:06:32;5.22;;;3.35;;
63444;SDS011;49573;47.682;9.170;2023-04-03T10:09:21;4.03;;;2.95;;
63444;SDS011;49573;47.682;9.170;2023-04-03T10:12:11;4.45;;;3.08;;
63444;SDS011;49573;47.682;9.170;2023-04-03T10:15:00;6.28;;;3.70;;
63444;SDS011;49573;47.682;9.170;2023-04-03T10:17:50;5.78;;;3.10;;
63444;SDS011;49573;47.682;9.170;2023-04-03T10:20:43;4.65;;;3.30;;
63444;SDS011;49573;47.682;9.170;2023-04-03T10:23:33;4.60;;;3.30;;
63444;SDS011;49573;47.682;9.170;2023-04-03T10:26:29;4.60;;;3.40;;
63444;SDS011;49573;47.682;9.170;2023-04-03T10:29:30;4.82;;;3.20;;
63444;SDS011;49573;47.682;9.170;2023-04-03T10:32:43;4.82;;;3.45;;
63444;SDS011;49573;47.682;9.170;2023-04-03T10:35:40;5.40;;;3.47;;
63444;SDS011;49573;47.682;9.170;2023-04-03T10:38:36;4.88;;;3.42;;
63444;SDS011;49573;47.682;9.170;2023-04-03T10:41:31;4.88;;;3.10;;
63444;SDS011;49573;47.682;9.170;2023-04-03T10:44:28;5.78;;;3.60;;
63444;SDS011;49573;47.682;9.170;2023-04-03T10:47:23;5.28;;;3.60;;
63444;SDS011;49573;47.682;9.170;2023-04-03T10:50:26;5.93;;;3.30;;
63444;SDS011;49573;47.682;9.170;2023-04-03T10:53:24;5.03;;;3.35;;
63444;SDS011;49573;47.682;9.170;2023-04-03T10:56:18;5.10;;;3.50;;
63444;SDS011;49573;47.682;9.170;2023-04-03T10:59:14;5.00;;;3.38;;
63444;SDS011;49573;47.682;9.170;2023-04-03T11:02:11;4.95;;;3.25;;
63444;SDS011;49573;47.682;9.170;2023-04-03T11:05:04;5.78;;;3.20;;
63444;SDS011;49573;47.682;9.170;2023-04-03T11:07:55;4.28;;;3.10;;
63444;SDS011;49573;47.682;9.170;2023-04-03T11:10:45;6.25;;;3.15;;
63444;SDS011;49573;47.682;9.170;2023-04-03T11:13:34;5.75;;;3.25;;
63444;SDS011;49573;47.682;9.170;2023-04-03T11:16:28;3.72;;;2.88;;
63444;SDS011;49573;47.682;9.170;2023-04-03T11:19:19;4.97;;;3.08;;
63444;SDS011;49573;47.682;9.170;2023-04-03T11:22:10;4.32;;;3.13;;
63444;SDS011;49573;47.682;9.170;2023-04-03T11:25:12;4.63;;;3.20;;
63444;SDS011;49573;47.682;9.170;2023-04-03T11:28:05;5.00;;;3.50;;
63444;SDS011;49573;47.682;9.170;2023-04-03T11:30:58;8.80;;;3.40;;
63444;SDS011;49573;47.682;9.170;2023-04-03T11:33:56;3.80;;;2.95;;
63444;SDS011;49573;47.682;9.170;2023-04-03T11:36:53;3.78;;;2.80;;
63444;SDS011;49573;47.682;9.170;2023-04-03T11:39:41;4.32;;;3.00;;
63444;SDS011;49573;47.682;9.170;2023-04-03T11:42:37;4.40;;;2.78;;
63444;SDS011;49573;47.682;9.170;2023-04-03T11:45:30;5.38;;;3.05;;
63444;SDS011;49573;47.682;9.170;2023-04-03T11:48:41;4.57;;;2.70;;
63444;SDS011;49573;47.682;9.170;2023-04-03T11:51:40;6.22;;;3.00;;
63444;SDS011;49573;47.682;9.170;2023-04-03T11:57:44;5.78;;;2.75;;
63444;SDS011;49573;47.682;9.170;2023-04-03T12:10:17;5.35;;;3.25;;
63444;SDS011;49573;47.682;9.170;2023-04-03T12:15:58;3.92;;;2.55;;
63444;SDS011;49573;47.682;9.170;2023-04-03T12:18:53;6.30;;;3.90;;
63444;SDS011;49573;47.682;9.170;2023-04-03T12:24:57;4.35;;;3.03;;
63444;SDS011;49573;47.682;9.170;2023-04-03T12:28:05;4.32;;;2.88;;
63444;SDS011;49573;47.682;9.170;2023-04-03T12:30:55;5.32;;;3.53;;
63444;SDS011;49573;47.682;9.170;2023-04-03T12:33:46;5.73;;;3.17;;
63444;SDS011;49573;47.682;9.170;2023-04-03T12:36:49;5.55;;;3.28;;
63444;SDS011;49573;47.682;9.170;2023-04-03T12:39:44;4.93;;;3.35;;
63444;SDS011;49573;47.682;9.170;2023-04-03T12:42:48;8.43;;;3.65;;
63444;SDS011;49573;47.682;9.170;2023-04-03T12:46:02;6.78;;;2.90;;
63444;SDS011;49573;47.682;9.170;2023-04-03T12:48:58;4.20;;;2.78;;
63444;SDS011;49573;47.682;9.170;2023-04-03T12:54:32;2.85;;;2.25;;
63444;SDS011;49573;47.682;9.170;2023-04-03T12:57:23;3.72;;;2.38;;
63444;SDS011;49573;47.682;9.170;2023-04-03T13:00:20;5.03;;;2.80;;
63444;SDS011;49573;47.682;9.170;2023-04-03T13:03:20;3.60;;;2.63;;
63444;SDS011;49573;47.682;9.170;2023-04-03T13:09:00;10.50;;;5.75;;
63444;SDS011;49573;47.682;9.170;2023-04-03T13:11:46;10.73;;;4.28;;
63444;SDS011;49573;47.682;9.170;2023-04-03T13:14:34;6.43;;;3.70;;
63444;SDS011;49573;47.682;9.170;2023-04-03T13:17:22;7.80;;;3.93;;
63444;SDS011;49573;47.682;9.170;2023-04-03T13:20:12;4.57;;;2.42;;
63444;SDS011;49573;47.682;9.170;2023-04-03T13:23:00;3.83;;;2.70;;
63444;SDS011;49573;47.682;9.170;2023-04-03T13:25:50;3.47;;;2.38;;
63444;SDS011;49573;47.682;9.170;2023-04-03T13:28:36;3.70;;;2.63;;
63444;SDS011;49573;47.682;9.170;2023-04-03T13:31:25;4.15;;;2.60;;
63444;SDS011;49573;47.682;9.170;2023-04-03T13:34:17;3.25;;;2.38;;
63444;SDS011;49573;47.682;9.170;2023-04-03T13:37:04;4.07;;;2.83;;
63444;SDS011;49573;47.682;9.170;2023-04-03T13:40:00;6.35;;;2.78;;
63444;SDS011;49573;47.682;9.170;2023-04-03T13:42:58;3.70;;;2.60;;
63444;SDS011;49573;47.682;9.170;2023-04-03T13:45:57;3.35;;;2.45;;
63444;SDS011;49573;47.682;9.170;2023-04-03T13:48:51;4.63;;;3.40;;
63444;SDS011;49573;47.682;9.170;2023-04-03T13:51:39;3.55;;;2.80;;
63444;SDS011;49573;47.682;9.170;2023-04-03T13:54:28;3.60;;;2.30;;
63444;SDS011;49573;47.682;9.170;2023-04-03T13:57:17;6.40;;;3.75;;
63444;SDS011;49573;47.682;9.170;2023-04-03T14:00:18;4.72;;;2.90;;
63444;SDS011;49573;47.682;9.170;2023-04-03T14:03:13;4.13;;;2.63;;
63444;SDS011;49573;47.682;9.170;2023-04-03T14:06:04;4.57;;;3.13;;
63444;SDS011;49573;47.682;9.170;2023-04-03T14:08:52;5.63;;;3.72;;
63444;SDS011;49573;47.682;9.170;2023-04-03T14:11:39;4.78;;;3.10;;
63444;SDS011;49573;47.682;9.170;2023-04-03T14:14:27;6.47;;;3.53;;
63444;SDS011;49573;47.682;9.170;2023-04-03T14:17:17;6.45;;;2.60;;
63444;SDS011;49573;47.682;9.170;2023-04-03T14:20:05;4.35;;;2.90;;
63444;SDS011;49573;47.682;9.170;2023-04-03T14:22:52;3.65;;;2.88;;
63444;SDS011;49573;47.682;9.170;2023-04-03T14:25:40;5.00;;;2.90;;
63444;SDS011;49573;47.682;9.170;2023-04-03T14:28:27;4.13;;;3.03;;
63444;SDS011;49573;47.682;9.170;2023-04-03T14:31:13;5.57;;;3.05;;
63444;SDS011;49573;47.682;9.170;2023-04-03T14:34:01;4.97;;;2.50;;
63444;SDS011;49573;47.682;9.170;2023-04-03T14:36:47;4.20;;;3.03;;
63444;SDS011;49573;47.682;9.170;2023-04-03T14:39:33;3.72;;;2.42;;
63444;SDS011;49573;47.682;9.170;2023-04-03T14:42:22;3.67;;;2.50;;
63444;SDS011;49573;47.682;9.170;2023-04-03T14:45:10;3.63;;;2.50;;
63444;SDS011;49573;47.682;9.170;2023-04-03T14:47:57;4.00;;;2.70;;
63444;SDS011;49573;47.682;9.170;2023-04-03T14:50:44;4.57;;;2.70;;
63444;SDS011;49573;47.682;9.170;2023-04-03T14:56:18;4.10;;;2.45;;
63444;SDS011;49573;47.682;9.170;2023-04-03T14:59:09;3.55;;;2.50;;
63444;SDS011;49573;47.682;9.170;2023-04-03T15:01:58;7.22;;;2.67;;
63444;SDS011;49573;47.682;9.170;2023-04-03T15:04:44;3.30;;;2.38;;
63444;SDS011;49573;47.682;9.170;2023-04-03T15:07:30;5.25;;;2.78;;
63444;SDS011;49573;47.682;9.170;2023-04-03T15:10:19;4.05;;;2.40;;
63444;SDS011;49573;47.682;9.170;2023-04-03T15:13:08;3.97;;;2.55;;
63444;SDS011;49573;47.682;9.170;2023-04-03T15:15:57;4.07;;;2.75;;
63444;SDS011;49573;47.682;9.170;2023-04-03T15:18:43;5.22;;;2.90;;
63444;SDS011;49573;47.682;9.170;2023-04-03T15:21:30;5.57;;;2.72;;
63444;SDS011;49573;47.682;9.170;2023-04-03T15:24:17;4.45;;;2.80;;
63444;SDS011;49573;47.682;9.170;2023-04-03T15:27:03;3.58;;;2.63;;
63444;SDS011;49573;47.682;9.170;2023-04-03T15:29:49;3.72;;;2.35;;
63444;SDS011;49573;47.682;9.170;2023-04-03T15:32:36;4.13;;;2.70;;
63444;SDS011;49573;47.682;9.170;2023-04-03T15:35:22;3.80;;;2.70;;
63444;SDS011;49573;47.682;9.170;2023-04-03T15:38:08;3.60;;;2.60;;
63444;SDS011;49573;47.682;9.170;2023-04-03T15:40:55;4.03;;;2.90;;
63444;SDS011;49573;47.682;9.170;2023-04-03T15:43:41;4.43;;;2.88;;
63444;SDS011;49573;47.682;9.170;2023-04-03T15:46:28;5.70;;;2.97;;
63444;SDS011;49573;47.682;9.170;2023-04-03T15:49:15;6.18;;;3.30;;
63444;SDS011;49573;47.682;9.170;2023-04-03T15:52:02;5.28;;;3.00;;
63444;SDS011;49573;47.682;9.170;2023-04-03T15:54:48;4.65;;;2.88;;
63444;SDS011;49573;47.682;9.170;2023-04-03T15:57:34;3.97;;;2.92;;
63444;SDS011;49573;47.682;9.170;2023-04-03T16:00:21;5.20;;;2.72;;
63444;SDS011;49573;47.682;9.170;2023-04-03T16:03:08;5.05;;;2.90;;
63444;SDS011;49573;47.682;9.170;2023-04-03T16:05:57;4.60;;;2.95;;
63444;SDS011;49573;47.682;9.170;2023-04-03T16:08:44;4.97;;;2.90;;
63444;SDS011;49573;47.682;9.170;2023-04-03T16:14:17;3.53;;;2.60;;
63444;SDS011;49573;47.682;9.170;2023-04-03T16:17:03;4.00;;;2.72;;
63444;SDS011;49573;47.682;9.170;2023-04-03T16:19:49;3.83;;;2.83;;
63444;SDS011;49573;47.682;9.170;2023-04-03T16:22:36;5.75;;;3.10;;
63444;SDS011;49573;47.682;9.170;2023-04-03T16:25:22;4.88;;;2.75;;
63444;SDS011;49573;47.682;9.170;2023-04-03T16:28:08;5.40;;;3.20;;
63444;SDS011;49573;47.682;9.170;2023-04-03T16:30:54;6.28;;;3.10;;
63444;SDS011;49573;47.682;9.170;2023-04-03T16:33:40;4.03;;;2.90;;
63444;SDS011;49573;47.682;9.170;2023-04-03T16:36:27;4.75;;;3.17;;
63444;SDS011;49573;47.682;9.170;2023-04-03T16:39:14;5.43;;;3.00;;
63444;SDS011;49573;47.682;9.170;2023-04-03T16:42:01;4.43;;;2.53;;
63444;SDS011;49573;47.682;9.170;2023-04-03T16:44:47;5.30;;;2.90;;
63444;SDS011;49573;47.682;9.170;2023-04-03T16:47:33;5.45;;;3.13;;
63444;SDS011;49573;47.682;9.170;2023-04-03T16:50:19;8.10;;;4.55;;
63444;SDS011;49573;47.682;9.170;2023-04-03T16:53:05;5.40;;;3.80;;
63444;SDS011;49573;47.682;9.170;2023-04-03T16:55:56;6.75;;;3.75;;
63444;SDS011;49573;47.682;9.170;2023-04-03T16:58:43;4.78;;;3.08;;
63444;SDS011;49573;47.682;9.170;2023-04-03T17:01:29;5.65;;;3.70;;
63444;SDS011;49573;47.682;9.170;2023-04-03T17:04:15;4.73;;;3.10;;
63444;SDS011;49573;47.682;9.170;2023-04-03T17:07:01;4.68;;;3.15;;
63444;SDS011;49573;47.682;9.170;2023-04-03T17:09:51;4.47;;;3.03;;
63444;SDS011;49573;47.682;9.170;2023-04-03T17:12:40;3.85;;;2.83;;
63444;SDS011;49573;47.682;9.170;2023-04-03T17:15:26;4.20;;;3.03;;
63444;SDS011;49573;47.682;9.170;2023-04-03T17:18:12;4.43;;;3.20;;
63444;SDS011;49573;47.682;9.170;2023-04-03T17:20:58;5.53;;;3.05;;
63444;SDS011;49573;47.682;9.170;2023-04-03T17:26:32;4.05;;;2.90;;
63444;SDS011;49573;47.682;9.170;2023-04-03T17:29:19;6.43;;;2.95;;
63444;SDS011;49573;47.682;9.170;2023-04-03T17:32:05;5.32;;;3.20;;
63444;SDS011;49573;47.682;9.170;2023-04-03T17:34:51;5.75;;;3.50;;